sensor_id;sensor_type;location;lat;lon;timestamp;pressure;altitude;pressure_sealevel;temperature;humidity
61906;BME280;47863;55.766;37.672;2022-12-05T00:03:57;102815.75;;;-10.89;74.24
61906;BME280;47863;55.766;37.672;2022-12-05T00:06:25;102817.25;;;-10.96;74.41
61906;BME280;47863;55.766;37.672;2022-12-05T00:08:51;102807.59;;;-11.02;74.11
61906;BME280;47863;55.766;37.672;2022-12-05T00:11:22;102795.94;;;-11.14;74.19
61906;BME280;47863;55.766;37.672;2022-12-05T00:13:49;102811.63;;;-11.10;74.08
61906;BME280;47863;55.766;37.672;2022-12-05T00:16:16;102802.66;;;-11.20;74.42
61906;BME280;47863;55.766;37.672;2022-12-05T00:18:43;102785.94;;;-11.29;74.54
61906;BME280;47863;55.766;37.672;2022-12-05T00:21:21;102806.81;;;-11.25;74.63
61906;BME280;47863;55.766;37.672;2022-12-05T00:23:47;102802.66;;;-11.20;74.38
61906;BME280;47863;55.766;37.672;2022-12-05T00:26:12;102805.16;;;-11.23;74.70
61906;BME280;47863;55.766;37.672;2022-12-05T00:28:39;102802.47;;;-11.26;74.43
61906;BME280;47863;55.766;37.672;2022-12-05T00:31:09;102805.72;;;-11.31;74.62
61906;BME280;47863;55.766;37.672;2022-12-05T00:33:36;102786.59;;;-11.37;74.59
61906;BME280;47863;55.766;37.672;2022-12-05T00:36:06;102792.97;;;-11.27;74.75
61906;BME280;47863;55.766;37.672;2022-12-05T00:38:32;102746.00;;;-11.65;74.72
61906;BME280;47863;55.766;37.672;2022-12-05T00:41:07;102794.69;;;-11.26;74.93
61906;BME280;47863;55.766;37.672;2022-12-05T00:43:34;102798.03;;;-11.30;75.05
61906;BME280;47863;55.766;37.672;2022-12-05T00:46:03;102793.63;;;-11.32;75.20
61906;BME280;47863;55.766;37.672;2022-12-05T00:48:29;102791.72;;;-11.38;75.12
61906;BME280;47863;55.766;37.672;2022-12-05T00:51:10;102779.38;;;-11.47;75.15
61906;BME280;47863;55.766;37.672;2022-12-05T00:53:35;102774.13;;;-11.48;75.25
61906;BME280;47863;55.766;37.672;2022-12-05T00:56:02;102786.47;;;-11.41;75.71
61906;BME280;47863;55.766;37.672;2022-12-05T00:58:28;102773.16;;;-11.52;75.55
61906;BME280;47863;55.766;37.672;2022-12-05T01:00:53;102786.22;;;-11.47;75.27
61906;BME280;47863;55.766;37.672;2022-12-05T01:03:19;102780.03;;;-11.52;75.20
61906;BME280;47863;55.766;37.672;2022-12-05T01:05:44;102779.09;;;-11.54;75.03
61906;BME280;47863;55.766;37.672;2022-12-05T01:08:09;102783.34;;;-11.57;75.29
61906;BME280;47863;55.766;37.672;2022-12-05T01:10:35;102770.34;;;-11.58;75.28
61906;BME280;47863;55.766;37.672;2022-12-05T01:13:00;102772.06;;;-11.59;75.02
61906;BME280;47863;55.766;37.672;2022-12-05T01:15:25;102766.97;;;-11.55;75.49
61906;BME280;47863;55.766;37.672;2022-12-05T01:17:51;102760.81;;;-11.59;75.04
61906;BME280;47863;55.766;37.672;2022-12-05T01:20:16;102759.94;;;-11.60;75.29
61906;BME280;47863;55.766;37.672;2022-12-05T01:22:42;102760.81;;;-11.59;75.50
61906;BME280;47863;55.766;37.672;2022-12-05T01:25:27;102741.44;;;-11.72;75.15
61906;BME280;47863;55.766;37.672;2022-12-05T01:27:53;102752.97;;;-11.62;75.44
61906;BME280;47863;55.766;37.672;2022-12-05T01:30:19;102751.19;;;-11.63;75.65
61906;BME280;47863;55.766;37.672;2022-12-05T01:32:45;102742.50;;;-11.67;75.47
61906;BME280;47863;55.766;37.672;2022-12-05T01:35:10;102744.09;;;-11.69;75.63
61906;BME280;47863;55.766;37.672;2022-12-05T01:37:36;102738.13;;;-11.68;75.57
61906;BME280;47863;55.766;37.672;2022-12-05T01:40:01;102740.72;;;-11.68;75.48
61906;BME280;47863;55.766;37.672;2022-12-05T01:42:28;102718.75;;;-11.81;75.32
61906;BME280;47863;55.766;37.672;2022-12-05T01:47:20;102736.41;;;-11.67;75.62
61906;BME280;47863;55.766;37.672;2022-12-05T01:49:46;102727.53;;;-11.75;75.73
61906;BME280;47863;55.766;37.672;2022-12-05T01:52:17;102732.81;;;-11.72;75.52
61906;BME280;47863;55.766;37.672;2022-12-05T01:54:49;102724.00;;;-11.78;75.42
61906;BME280;47863;55.766;37.672;2022-12-05T01:57:15;102721.34;;;-11.79;75.67
61906;BME280;47863;55.766;37.672;2022-12-05T01:59:41;102730.97;;;-11.75;75.88
61906;BME280;47863;55.766;37.672;2022-12-05T02:02:09;102730.06;;;-11.77;75.82
61906;BME280;47863;55.766;37.672;2022-12-05T02:04:44;102726.59;;;-11.78;75.76
61906;BME280;47863;55.766;37.672;2022-12-05T02:07:12;102728.25;;;-11.80;75.77
61906;BME280;47863;55.766;37.672;2022-12-05T02:09:37;102724.84;;;-11.79;75.46
61906;BME280;47863;55.766;37.672;2022-12-05T02:12:03;102738.59;;;-11.80;75.91
61906;BME280;47863;55.766;37.672;2022-12-05T02:28:20;102709.06;;;-11.86;75.84
61906;BME280;47863;55.766;37.672;2022-12-05T02:31:26;102708.28;;;-11.84;75.75
61906;BME280;47863;55.766;37.672;2022-12-05T02:33:52;102667.88;;;-12.07;75.78
61906;BME280;47863;55.766;37.672;2022-12-05T02:36:36;102706.44;;;-11.88;75.71
61906;BME280;47863;55.766;37.672;2022-12-05T02:39:17;102707.31;;;-11.87;75.73
61906;BME280;47863;55.766;37.672;2022-12-05T02:41:53;102703.81;;;-11.89;75.52
61906;BME280;47863;55.766;37.672;2022-12-05T02:44:52;102700.31;;;-11.91;75.78
61906;BME280;47863;55.766;37.672;2022-12-05T02:47:22;102690.41;;;-12.03;75.76
61906;BME280;47863;55.766;37.672;2022-12-05T02:49:50;102690.53;;;-12.00;75.57
61906;BME280;47863;55.766;37.672;2022-12-05T02:52:18;102686.19;;;-12.01;75.75
61906;BME280;47863;55.766;37.672;2022-12-05T02:54:45;102588.69;;;-12.57;75.55
61906;BME280;47863;55.766;37.672;2022-12-05T02:57:13;102694.09;;;-11.97;76.09
61906;BME280;47863;55.766;37.672;2022-12-05T02:59:39;102687.97;;;-11.99;75.62
61906;BME280;47863;55.766;37.672;2022-12-05T03:02:06;102694.94;;;-11.98;75.77
61906;BME280;47863;55.766;37.672;2022-12-05T03:04:32;102681.88;;;-12.01;75.63
61906;BME280;47863;55.766;37.672;2022-12-05T03:06:58;102693.13;;;-12.00;75.45
61906;BME280;47863;55.766;37.672;2022-12-05T03:09:29;102670.47;;;-12.07;75.47
61906;BME280;47863;55.766;37.672;2022-12-05T03:12:13;102677.66;;;-11.99;75.93
61906;BME280;47863;55.766;37.672;2022-12-05T03:14:45;102675.97;;;-11.98;75.53
61906;BME280;47863;55.766;37.672;2022-12-05T03:17:18;102679.41;;;-11.98;75.90
61906;BME280;47863;55.766;37.672;2022-12-05T03:22:37;102645.81;;;-12.23;75.87
61906;BME280;47863;55.766;37.672;2022-12-05T03:25:05;102599.16;;;-12.53;75.98
61906;BME280;47863;55.766;37.672;2022-12-05T03:30:18;102677.56;;;-12.02;75.90
61906;BME280;47863;55.766;37.672;2022-12-05T03:33:07;102676.69;;;-12.02;75.81
61906;BME280;47863;55.766;37.672;2022-12-05T03:38:44;102669.69;;;-12.05;75.72
61906;BME280;47863;55.766;37.672;2022-12-05T03:41:30;102668.00;;;-12.04;75.55
61906;BME280;47863;55.766;37.672;2022-12-05T03:44:13;102650.59;;;-12.08;75.68
61906;BME280;47863;55.766;37.672;2022-12-05T03:49:48;102650.59;;;-12.10;75.59
61906;BME280;47863;55.766;37.672;2022-12-05T03:52:23;102624.09;;;-12.28;75.44
61906;BME280;47863;55.766;37.672;2022-12-05T03:55:03;102647.09;;;-12.10;75.63
61906;BME280;47863;55.766;37.672;2022-12-05T03:57:33;102619.09;;;-12.24;75.96
61906;BME280;47863;55.766;37.672;2022-12-05T04:00:11;102635.94;;;-12.09;75.55
61906;BME280;47863;55.766;37.672;2022-12-05T04:03:03;102644.56;;;-12.09;75.90
61906;BME280;47863;55.766;37.672;2022-12-05T04:05:52;102635.81;;;-12.12;75.69
61906;BME280;47863;55.766;37.672;2022-12-05T04:08:24;102615.59;;;-12.26;75.80
61906;BME280;47863;55.766;37.672;2022-12-05T04:10:52;102640.97;;;-12.14;75.70
61906;BME280;47863;55.766;37.672;2022-12-05T04:13:38;102604.00;;;-12.37;75.58
61906;BME280;47863;55.766;37.672;2022-12-05T04:16:22;102638.38;;;-12.14;75.91
61906;BME280;47863;55.766;37.672;2022-12-05T04:19:22;102620.78;;;-12.24;75.86
61906;BME280;47863;55.766;37.672;2022-12-05T04:21:52;102638.31;;;-12.15;75.95
61906;BME280;47863;55.766;37.672;2022-12-05T04:24:19;102634.88;;;-12.16;75.92
61906;BME280;47863;55.766;37.672;2022-12-05T04:27:09;102631.44;;;-12.15;75.70
61906;BME280;47863;55.766;37.672;2022-12-05T04:30:03;102600.97;;;-12.25;75.89
61906;BME280;47863;55.766;37.672;2022-12-05T04:32:36;102621.16;;;-12.13;75.87
61906;BME280;47863;55.766;37.672;2022-12-05T04:35:08;102586.84;;;-12.35;75.51
61906;BME280;47863;55.766;37.672;2022-12-05T04:37:39;102615.06;;;-12.15;75.97
61906;BME280;47863;55.766;37.672;2022-12-05T04:40:11;102603.69;;;-12.21;75.78
61906;BME280;47863;55.766;37.672;2022-12-05T04:42:39;102584.28;;;-12.35;76.02
61906;BME280;47863;55.766;37.672;2022-12-05T04:45:09;102616.66;;;-12.19;75.76
61906;BME280;47863;55.766;37.672;2022-12-05T04:47:42;102607.00;;;-12.25;75.53
61906;BME280;47863;55.766;37.672;2022-12-05T04:50:11;102613.22;;;-12.20;76.05
61906;BME280;47863;55.766;37.672;2022-12-05T04:52:38;102585.25;;;-12.31;75.54
61906;BME280;47863;55.766;37.672;2022-12-05T04:55:11;102601.06;;;-12.22;75.54
61906;BME280;47863;55.766;37.672;2022-12-05T04:58:06;102595.00;;;-12.23;75.76
61906;BME280;47863;55.766;37.672;2022-12-05T05:03:36;102584.63;;;-12.24;75.80
61906;BME280;47863;55.766;37.672;2022-12-05T05:06:04;102598.47;;;-12.22;75.82
61906;BME280;47863;55.766;37.672;2022-12-05T05:08:31;102592.44;;;-12.23;75.75
61906;BME280;47863;55.766;37.672;2022-12-05T05:11:10;102585.66;;;-12.19;76.15
61906;BME280;47863;55.766;37.672;2022-12-05T05:13:37;102547.78;;;-12.44;75.40
61906;BME280;47863;55.766;37.672;2022-12-05T05:16:03;102594.19;;;-12.22;75.82
61906;BME280;47863;55.766;37.672;2022-12-05T05:18:29;102540.41;;;-12.59;75.56
61906;BME280;47863;55.766;37.672;2022-12-05T05:20:54;102605.25;;;-12.26;75.88
61906;BME280;47863;55.766;37.672;2022-12-05T05:23:20;102555.44;;;-12.47;75.92
61906;BME280;47863;55.766;37.672;2022-12-05T05:25:50;102596.59;;;-12.26;75.71
61906;BME280;47863;55.766;37.672;2022-12-05T05:28:16;102590.63;;;-12.25;75.66
61906;BME280;47863;55.766;37.672;2022-12-05T05:30:41;102600.09;;;-12.26;75.79
61906;BME280;47863;55.766;37.672;2022-12-05T05:33:07;102542.06;;;-12.61;75.81
61906;BME280;47863;55.766;37.672;2022-12-05T05:35:34;102600.97;;;-12.25;75.85
61906;BME280;47863;55.766;37.672;2022-12-05T05:38:00;102593.16;;;-12.27;75.83
61906;BME280;47863;55.766;37.672;2022-12-05T05:40:25;102595.88;;;-12.22;75.85
61906;BME280;47863;55.766;37.672;2022-12-05T05:42:50;102570.56;;;-12.32;76.02
61906;BME280;47863;55.766;37.672;2022-12-05T05:45:16;102595.13;;;-12.20;76.04
61906;BME280;47863;55.766;37.672;2022-12-05T05:47:42;102577.97;;;-12.18;75.65
61906;BME280;47863;55.766;37.672;2022-12-05T05:50:09;102585.88;;;-12.13;75.70
61906;BME280;47863;55.766;37.672;2022-12-05T05:52:36;102575.66;;;-12.08;75.57
61906;BME280;47863;55.766;37.672;2022-12-05T05:55:03;102567.72;;;-12.14;75.56
61906;BME280;47863;55.766;37.672;2022-12-05T05:57:30;102573.09;;;-12.08;75.49
61906;BME280;47863;55.766;37.672;2022-12-05T05:59:55;102570.66;;;-12.04;75.53
61906;BME280;47863;55.766;37.672;2022-12-05T06:02:21;102540.81;;;-12.21;75.53
61906;BME280;47863;55.766;37.672;2022-12-05T06:04:46;102571.78;;;-11.95;75.50
61906;BME280;47863;55.766;37.672;2022-12-05T06:07:12;102575.34;;;-11.92;75.41
61906;BME280;47863;55.766;37.672;2022-12-05T06:09:37;102570.25;;;-11.89;75.39
61906;BME280;47863;55.766;37.672;2022-12-05T06:12:03;102573.97;;;-11.81;75.12
61906;BME280;47863;55.766;37.672;2022-12-05T06:14:28;102576.75;;;-11.74;75.35
61906;BME280;47863;55.766;37.672;2022-12-05T06:16:54;102568.50;;;-11.63;74.27
61906;BME280;47863;55.766;37.672;2022-12-05T06:19:19;102566.97;;;-11.56;74.60
61906;BME280;47863;55.766;37.672;2022-12-05T06:21:48;102545.44;;;-11.55;74.87
61906;BME280;47863;55.766;37.672;2022-12-05T06:24:14;102567.78;;;-10.98;74.24
61906;BME280;47863;55.766;37.672;2022-12-05T06:26:40;102558.31;;;-10.66;73.95
61906;BME280;47863;55.766;37.672;2022-12-05T06:29:05;102569.69;;;-10.26;72.22
61906;BME280;47863;55.766;37.672;2022-12-05T06:31:31;102551.28;;;-10.00;72.41
61906;BME280;47863;55.766;37.672;2022-12-05T06:34:02;102558.25;;;-9.61;71.23
61906;BME280;47863;55.766;37.672;2022-12-05T06:36:28;102488.81;;;-9.73;70.65
61906;BME280;47863;55.766;37.672;2022-12-05T06:38:57;102504.31;;;-9.35;69.64
61906;BME280;47863;55.766;37.672;2022-12-05T06:41:23;102554.81;;;-8.76;69.25
61906;BME280;47863;55.766;37.672;2022-12-05T06:43:56;102535.13;;;-8.64;69.04
61906;BME280;47863;55.766;37.672;2022-12-05T06:46:24;102560.03;;;-8.26;68.63
61906;BME280;47863;55.766;37.672;2022-12-05T06:48:53;102530.66;;;-8.21;66.66
61906;BME280;47863;55.766;37.672;2022-12-05T06:51:19;102539.06;;;-7.81;65.03
61906;BME280;47863;55.766;37.672;2022-12-05T06:53:44;102543.06;;;-7.46;64.67
61906;BME280;47863;55.766;37.672;2022-12-05T06:56:13;102540.75;;;-7.22;66.14
61906;BME280;47863;55.766;37.672;2022-12-05T06:58:40;102547.16;;;-6.93;64.28
61906;BME280;47863;55.766;37.672;2022-12-05T07:01:18;102514.13;;;-6.98;64.00
61906;BME280;47863;55.766;37.672;2022-12-05T07:04:03;102545.53;;;-6.84;63.25
61906;BME280;47863;55.766;37.672;2022-12-05T07:06:30;102532.16;;;-7.16;61.94
61906;BME280;47863;55.766;37.672;2022-12-05T07:08:56;102489.16;;;-7.50;62.82
61906;BME280;47863;55.766;37.672;2022-12-05T07:11:22;102539.47;;;-6.84;62.54
61906;BME280;47863;55.766;37.672;2022-12-05T07:13:47;102508.59;;;-6.43;61.63
61906;BME280;47863;55.766;37.672;2022-12-05T07:16:13;102534.06;;;-6.14;61.22
61906;BME280;47863;55.766;37.672;2022-12-05T07:18:38;102534.97;;;-6.04;59.85
61906;BME280;47863;55.766;37.672;2022-12-05T07:21:07;102507.69;;;-6.46;59.24
61906;BME280;47863;55.766;37.672;2022-12-05T07:23:33;102497.66;;;-6.93;59.63
61906;BME280;47863;55.766;37.672;2022-12-05T07:26:04;102514.13;;;-6.98;59.04
61906;BME280;47863;55.766;37.672;2022-12-05T07:28:30;102529.25;;;-6.63;59.37
61906;BME280;47863;55.766;37.672;2022-12-05T07:31:03;102526.16;;;-6.20;59.48
61906;BME280;47863;55.766;37.672;2022-12-05T07:33:29;102523.03;;;-5.70;59.79
61906;BME280;47863;55.766;37.672;2022-12-05T07:36:05;102526.69;;;-5.40;57.15
61906;BME280;47863;55.766;37.672;2022-12-05T07:38:31;102482.13;;;-5.68;56.02
61906;BME280;47863;55.766;37.672;2022-12-05T07:40:57;102515.34;;;-5.39;56.15
61906;BME280;47863;55.766;37.672;2022-12-05T07:43:23;102509.16;;;-5.63;56.51
61906;BME280;47863;55.766;37.672;2022-12-05T07:45:48;102509.78;;;-6.01;57.25
61906;BME280;47863;55.766;37.672;2022-12-05T07:48:14;102512.16;;;-6.33;58.40
61906;BME280;47863;55.766;37.672;2022-12-05T07:50:39;102508.47;;;-6.56;58.93
61906;BME280;47863;55.766;37.672;2022-12-05T07:53:05;102508.28;;;-6.75;59.73
61906;BME280;47863;55.766;37.672;2022-12-05T07:55:30;102462.72;;;-7.14;59.93
61906;BME280;47863;55.766;37.672;2022-12-05T07:57:56;102503.63;;;-7.07;59.42
61906;BME280;47863;55.766;37.672;2022-12-05T08:00:21;102510.41;;;-7.18;60.37
61906;BME280;47863;55.766;37.672;2022-12-05T08:02:47;102481.66;;;-7.26;60.73
61906;BME280;47863;55.766;37.672;2022-12-05T08:05:12;102494.84;;;-7.12;61.11
61906;BME280;47863;55.766;37.672;2022-12-05T08:07:38;102476.47;;;-7.26;61.25
61906;BME280;47863;55.766;37.672;2022-12-05T08:10:04;102499.06;;;-7.23;61.73
61906;BME280;47863;55.766;37.672;2022-12-05T08:12:30;102488.50;;;-7.35;60.36
61906;BME280;47863;55.766;37.672;2022-12-05T08:14:55;102491.91;;;-7.41;60.94
61906;BME280;47863;55.766;37.672;2022-12-05T08:17:21;102488.38;;;-7.45;60.57
61906;BME280;47863;55.766;37.672;2022-12-05T08:19:46;102451.56;;;-7.72;60.60
61906;BME280;47863;55.766;37.672;2022-12-05T08:22:12;102484.78;;;-7.54;60.28
61906;BME280;47863;55.766;37.672;2022-12-05T08:24:37;102487.19;;;-7.68;61.24
61906;BME280;47863;55.766;37.672;2022-12-05T08:27:04;102474.09;;;-7.74;61.33
61906;BME280;47863;55.766;37.672;2022-12-05T08:29:29;102468.16;;;-7.66;61.59
61906;BME280;47863;55.766;37.672;2022-12-05T08:31:55;102466.97;;;-7.19;61.11
61906;BME280;47863;55.766;37.672;2022-12-05T08:34:20;102427.44;;;-6.81;60.30
61906;BME280;47863;55.766;37.672;2022-12-05T08:36:46;102456.88;;;-5.67;59.67
61906;BME280;47863;55.766;37.672;2022-12-05T08:39:15;102460.59;;;-5.04;58.62
61906;BME280;47863;55.766;37.672;2022-12-05T08:41:42;102427.53;;;-4.83;56.85
61906;BME280;47863;55.766;37.672;2022-12-05T08:44:09;102431.06;;;-4.60;55.43
61906;BME280;47863;55.766;37.672;2022-12-05T08:46:36;102448.44;;;-4.02;56.81
61906;BME280;47863;55.766;37.672;2022-12-05T08:49:04;102445.66;;;-3.43;56.49
61906;BME280;47863;55.766;37.672;2022-12-05T08:51:30;102448.78;;;-2.80;56.39
61906;BME280;47863;55.766;37.672;2022-12-05T08:53:55;102428.50;;;-2.57;54.69
61906;BME280;47863;55.766;37.672;2022-12-05T08:56:21;102442.91;;;-2.04;55.30
61906;BME280;47863;55.766;37.672;2022-12-05T08:58:47;102444.03;;;-1.48;55.09
61906;BME280;47863;55.766;37.672;2022-12-05T09:01:15;102433.72;;;-0.98;53.05
61906;BME280;47863;55.766;37.672;2022-12-05T09:03:42;102427.63;;;-0.46;52.88
61906;BME280;47863;55.766;37.672;2022-12-05T09:06:19;102428.16;;;0.23;52.56
61906;BME280;47863;55.766;37.672;2022-12-05T09:08:45;102405.88;;;0.80;52.25
61906;BME280;47863;55.766;37.672;2022-12-05T09:11:20;102425.06;;;0.87;51.78
61906;BME280;47863;55.766;37.672;2022-12-05T09:13:49;102422.63;;;0.79;51.07
61906;BME280;47863;55.766;37.672;2022-12-05T09:16:23;102416.91;;;0.99;50.91
61906;BME280;47863;55.766;37.672;2022-12-05T09:18:50;102407.88;;;1.08;50.42
61906;BME280;47863;55.766;37.672;2022-12-05T09:21:18;102398.75;;;0.85;50.70
61906;BME280;47863;55.766;37.672;2022-12-05T09:23:44;102380.69;;;-0.21;50.07
61906;BME280;47863;55.766;37.672;2022-12-05T09:26:12;102405.94;;;-1.16;50.28
61906;BME280;47863;55.766;37.672;2022-12-05T09:28:39;102404.59;;;-2.24;51.88
61906;BME280;47863;55.766;37.672;2022-12-05T09:31:07;102391.31;;;-3.12;51.08
61906;BME280;47863;55.766;37.672;2022-12-05T09:33:34;102410.84;;;-3.85;52.08
61906;BME280;47863;55.766;37.672;2022-12-05T09:36:21;102387.44;;;-4.45;52.49
61906;BME280;47863;55.766;37.672;2022-12-05T09:38:47;102377.88;;;-4.75;53.53
61906;BME280;47863;55.766;37.672;2022-12-05T09:47:52;102397.00;;;-4.24;53.37
61906;BME280;47863;55.766;37.672;2022-12-05T09:50:28;102392.63;;;-4.14;52.53
61906;BME280;47863;55.766;37.672;2022-12-05T09:53:06;102390.84;;;-4.09;52.81
61906;BME280;47863;55.766;37.672;2022-12-05T09:58:40;102374.94;;;-3.55;53.46
61906;BME280;47863;55.766;37.672;2022-12-05T10:06:40;102361.31;;;-2.77;50.95
61906;BME280;47863;55.766;37.672;2022-12-05T10:09:47;102342.16;;;-2.87;51.10
61906;BME280;47863;55.766;37.672;2022-12-05T10:15:31;102361.63;;;-3.15;51.27
61906;BME280;47863;55.766;37.672;2022-12-05T10:26:17;102334.25;;;-4.55;53.79
61906;BME280;47863;55.766;37.672;2022-12-05T10:29:02;102337.78;;;-4.71;53.58
61906;BME280;47863;55.766;37.672;2022-12-05T10:31:34;102314.22;;;-5.16;54.60
61906;BME280;47863;55.766;37.672;2022-12-05T10:34:25;102345.56;;;-5.24;54.69
61906;BME280;47863;55.766;37.672;2022-12-05T10:36:57;102346.41;;;-5.43;55.03
61906;BME280;47863;55.766;37.672;2022-12-05T10:39:24;102337.69;;;-5.56;55.17
61906;BME280;47863;55.766;37.672;2022-12-05T10:41:51;102333.28;;;-5.75;55.28
61906;BME280;47863;55.766;37.672;2022-12-05T10:44:16;102341.94;;;-5.81;55.63
61906;BME280;47863;55.766;37.672;2022-12-05T10:46:42;102341.91;;;-5.92;55.39
61906;BME280;47863;55.766;37.672;2022-12-05T10:49:10;102328.84;;;-6.06;55.22
61906;BME280;47863;55.766;37.672;2022-12-05T10:51:36;102297.41;;;-6.29;55.21
61906;BME280;47863;55.766;37.672;2022-12-05T10:54:14;102345.31;;;-6.13;56.10
61906;BME280;47863;55.766;37.672;2022-12-05T10:56:43;102347.06;;;-6.13;56.31
61906;BME280;47863;55.766;37.672;2022-12-05T10:59:12;102347.09;;;-6.12;56.79
61906;BME280;47863;55.766;37.672;2022-12-05T11:01:43;102347.94;;;-6.13;56.64
61906;BME280;47863;55.766;37.672;2022-12-05T11:04:28;102334.03;;;-6.10;55.95
61906;BME280;47863;55.766;37.672;2022-12-05T11:07:01;102333.16;;;-6.09;56.54
61906;BME280;47863;55.766;37.672;2022-12-05T11:09:30;102323.63;;;-6.06;56.38
61906;BME280;47863;55.766;37.672;2022-12-05T11:12:05;102335.81;;;-5.94;57.14
61906;BME280;47863;55.766;37.672;2022-12-05T11:14:38;102339.34;;;-5.86;56.72
61906;BME280;47863;55.766;37.672;2022-12-05T11:17:04;102328.88;;;-5.83;56.20
61906;BME280;47863;55.766;37.672;2022-12-05T11:19:32;102307.97;;;-6.01;56.30
61906;BME280;47863;55.766;37.672;2022-12-05T11:21:59;102323.66;;;-5.95;56.72
61906;BME280;47863;55.766;37.672;2022-12-05T11:24:35;102318.41;;;-5.93;57.03
61906;BME280;47863;55.766;37.672;2022-12-05T11:29:46;102312.38;;;-5.86;56.70
61906;BME280;47863;55.766;37.672;2022-12-05T11:32:20;102314.09;;;-5.79;56.93
61906;BME280;47863;55.766;37.672;2022-12-05T11:34:51;102319.28;;;-5.87;55.95
61906;BME280;47863;55.766;37.672;2022-12-05T11:37:25;102301.88;;;-6.09;55.91
61906;BME280;47863;55.766;37.672;2022-12-05T11:39:54;102318.38;;;-6.13;56.48
61906;BME280;47863;55.766;37.672;2022-12-05T11:48:39;102303.31;;;-6.58;57.22
61906;BME280;47863;55.766;37.672;2022-12-05T11:51:44;102302.38;;;-6.75;56.26
61906;BME280;47863;55.766;37.672;2022-12-05T11:57:27;102294.31;;;-7.09;56.38
61906;BME280;47863;55.766;37.672;2022-12-05T12:17:15;102262.59;;;-7.60;56.43
61906;BME280;47863;55.766;37.672;2022-12-05T12:22:46;102245.13;;;-7.71;57.06
61906;BME280;47863;55.766;37.672;2022-12-05T12:26:05;102239.00;;;-7.77;57.36
61906;BME280;47863;55.766;37.672;2022-12-05T12:37:12;102247.56;;;-7.88;57.96
61906;BME280;47863;55.766;37.672;2022-12-05T12:42:23;102246.66;;;-7.90;58.58
61906;BME280;47863;55.766;37.672;2022-12-05T12:45:04;102190.84;;;-8.23;58.30
61906;BME280;47863;55.766;37.672;2022-12-05T12:50:24;102196.78;;;-8.35;59.08
61906;BME280;47863;55.766;37.672;2022-12-05T12:56:33;102234.94;;;-8.29;59.62
61906;BME280;47863;55.766;37.672;2022-12-05T13:01:39;102233.91;;;-8.45;60.34
61906;BME280;47863;55.766;37.672;2022-12-05T13:04:38;102232.13;;;-8.49;60.81
61906;BME280;47863;55.766;37.672;2022-12-05T13:07:25;102225.16;;;-8.53;60.66
61906;BME280;47863;55.766;37.672;2022-12-05T13:09:59;102219.03;;;-8.57;61.33
61906;BME280;47863;55.766;37.672;2022-12-05T13:12:30;102191.91;;;-8.79;60.94
61906;BME280;47863;55.766;37.672;2022-12-05T13:15:01;102212.81;;;-8.70;61.26
61906;BME280;47863;55.766;37.672;2022-12-05T13:17:31;102224.16;;;-8.65;61.41
61906;BME280;47863;55.766;37.672;2022-12-05T13:19:57;102225.00;;;-8.66;61.87
61906;BME280;47863;55.766;37.672;2022-12-05T13:22:25;102224.06;;;-8.71;61.57
61906;BME280;47863;55.766;37.672;2022-12-05T13:24:53;102222.28;;;-8.75;62.28
61906;BME280;47863;55.766;37.672;2022-12-05T13:27:24;102207.56;;;-8.76;62.27
61906;BME280;47863;55.766;37.672;2022-12-05T13:29:58;102202.38;;;-8.73;62.60
61906;BME280;47863;55.766;37.672;2022-12-05T13:32:32;102204.09;;;-8.75;62.03
61906;BME280;47863;55.766;37.672;2022-12-05T13:37:33;102163.16;;;-8.93;62.70
61906;BME280;47863;55.766;37.672;2022-12-05T13:43:12;102193.75;;;-8.72;62.53
61906;BME280;47863;55.766;37.672;2022-12-05T13:45:39;102192.03;;;-8.70;63.14
61906;BME280;47863;55.766;37.672;2022-12-05T13:48:13;102184.22;;;-8.71;62.89
61906;BME280;47863;55.766;37.672;2022-12-05T13:50:57;102136.19;;;-9.03;63.15
61906;BME280;47863;55.766;37.672;2022-12-05T13:53:41;102198.09;;;-8.69;63.77
61906;BME280;47863;55.766;37.672;2022-12-05T14:03:58;102201.59;;;-8.67;63.75
61906;BME280;47863;55.766;37.672;2022-12-05T14:09:00;102160.63;;;-8.88;64.22
61906;BME280;47863;55.766;37.672;2022-12-05T14:11:26;102176.31;;;-8.82;63.59
61906;BME280;47863;55.766;37.672;2022-12-05T14:13:52;102153.69;;;-8.89;64.20
61906;BME280;47863;55.766;37.672;2022-12-05T14:19:02;102170.31;;;-8.76;63.83
61906;BME280;47863;55.766;37.672;2022-12-05T14:21:56;102165.13;;;-8.75;64.24
61906;BME280;47863;55.766;37.672;2022-12-05T14:24:45;102135.44;;;-8.94;64.25
61906;BME280;47863;55.766;37.672;2022-12-05T14:27:28;102147.72;;;-8.81;64.16
61906;BME280;47863;55.766;37.672;2022-12-05T14:32:36;102126.75;;;-8.94;63.82
61906;BME280;47863;55.766;37.672;2022-12-05T14:35:38;102104.03;;;-9.14;64.37
61906;BME280;47863;55.766;37.672;2022-12-05T14:38:06;102149.47;;;-8.80;64.48
61906;BME280;47863;55.766;37.672;2022-12-05T14:43:03;102132.13;;;-8.82;65.21
61906;BME280;47863;55.766;37.672;2022-12-05T14:46:00;102137.34;;;-8.81;65.66
61906;BME280;47863;55.766;37.672;2022-12-05T14:50:54;102133.03;;;-8.80;65.06
61906;BME280;47863;55.766;37.672;2022-12-05T14:53:21;102120.75;;;-8.92;64.83
61906;BME280;47863;55.766;37.672;2022-12-05T14:55:54;102080.66;;;-9.14;64.85
61906;BME280;47863;55.766;37.672;2022-12-05T15:01:27;102120.03;;;-8.80;65.48
61906;BME280;47863;55.766;37.672;2022-12-05T15:06:29;102119.91;;;-8.89;65.31
61906;BME280;47863;55.766;37.672;2022-12-05T15:08:57;102117.34;;;-8.88;66.42
61906;BME280;47863;55.766;37.672;2022-12-05T15:11:29;102119.06;;;-8.90;65.67
61906;BME280;47863;55.766;37.672;2022-12-05T15:14:00;102019.63;;;-9.50;65.63
61906;BME280;47863;55.766;37.672;2022-12-05T15:16:30;102054.53;;;-9.26;66.23
61906;BME280;47863;55.766;37.672;2022-12-05T15:19:02;102085.09;;;-9.05;66.45